Time;durP1;ratioP1;P1;durP2;ratioP2;P2;SDS_P1;SDS_P2;PMS_P1;PMS_P2;Temp;Humidity;BMP_temperature;BMP_pressure;BME280_temperature;BME280_humidity;BME280_pressure;Samples;Min_cycle;Max_cycle;Signal;HPM_P1;HPM_P2
2022/03/31 00:01:04;;;;;;;11.80;5.18;;;20.30;99.90;;;;;;5055396;28;20017;-79
2022/03/31 00:03:31;;;;;;;12.68;5.38;;;20.30;99.90;;;;;;5036993;28;20405;-78
2022/03/31 00:05:59;;;;;;;11.55;5.07;;;20.20;99.90;;;;;;5054606;28;20029;-78
2022/03/31 00:08:26;;;;;;;10.77;5.38;;;20.10;99.90;;;;;;5038117;28;20124;-79
2022/03/31 00:10:55;;;;;;;11.98;5.55;;;20.00;99.90;;;;;;5055754;28;20039;-79
2022/03/31 00:13:26;;;;;;;10.10;5.28;;;19.90;99.90;;;;;;5056096;28;20444;-80
2022/03/31 00:15:56;;;;;;;11.25;4.88;;;19.90;99.90;;;;;;5056629;28;20474;-80
2022/03/31 00:18:24;;;;;;;13.55;4.90;;;19.90;99.90;;;;;;5056522;28;20095;-79
2022/03/31 00:20:51;;;;;;;14.18;6.00;;;19.90;99.90;;;;;;5056050;28;20371;-79
2022/03/31 00:23:19;;;;;;;10.30;4.93;;;19.90;99.90;;;;;;5038811;28;20135;-79
2022/03/31 00:25:46;;;;;;;9.30;4.10;;;19.90;99.90;;;;;;5056518;28;20029;-80
2022/03/31 00:28:14;;;;;;;9.23;4.55;;;19.80;99.90;;;;;;5038831;28;20444;-79
2022/03/31 00:30:41;;;;;;;9.40;4.43;;;19.70;99.90;;;;;;5056098;28;20021;-80
2022/03/31 00:33:09;;;;;;;12.00;4.63;;;19.70;99.90;;;;;;5038443;28;20021;-80
2022/03/31 00:35:36;;;;;;;10.27;4.68;;;19.60;99.90;;;;;;5056943;28;20485;-80
2022/03/31 00:38:03;;;;;;;16.15;5.35;;;19.90;99.90;;;;;;5037937;28;20122;-78
2022/03/31 00:40:32;;;;;;;9.98;4.75;;;20.00;99.90;;;;;;5055147;28;20501;-78
2022/03/31 00:42:59;;;;;;;8.98;4.53;;;20.10;99.90;;;;;;5055671;28;20100;-80
2022/03/31 00:45:34;;;;;;;12.10;4.95;;;20.20;99.90;;;;;;5036820;28;20036;-80
2022/03/31 00:48:02;;;;;;;11.18;4.40;;;20.80;99.90;;;;;;5054465;28;20100;-79
2022/03/31 00:50:33;;;;;;;10.73;4.50;;;20.90;99.90;;;;;;5055085;28;20021;-78
2022/03/31 00:53:00;;;;;;;11.63;5.28;;;20.70;99.90;;;;;;5057180;28;20028;-78
2022/03/31 00:55:28;;;;;;;12.82;4.50;;;20.80;99.90;;;;;;5056829;28;20113;-78
2022/03/31 00:57:55;;;;;;;11.13;4.90;;;20.70;99.90;;;;;;5057187;28;20057;-78
2022/03/31 01:00:23;;;;;;;11.20;4.40;;;20.70;99.90;;;;;;5056354;28;20374;-77
2022/03/31 01:02:50;;;;;;;9.77;3.40;;;20.40;99.90;;;;;;5056751;28;20021;-78
2022/03/31 01:05:18;;;;;;;5.72;2.63;;;20.20;99.90;;;;;;5038629;28;20086;-78
2022/03/31 01:07:45;;;;;;;6.35;3.20;;;20.00;99.90;;;;;;5038621;28;20190;-76
2022/03/31 01:10:14;;;;;;;8.13;3.30;;;19.80;99.90;;;;;;5056211;28;20025;-77
2022/03/31 01:12:42;;;;;;;8.90;3.33;;;19.70;99.90;;;;;;5055661;28;20020;-79
2022/03/31 01:15:20;;;;;;;7.38;2.70;;;19.60;99.90;;;;;;5055245;28;20474;-78
2022/03/31 01:17:49;;;;;;;4.75;2.80;;;19.50;99.90;;;;;;5055338;28;20064;-78
2022/03/31 01:20:21;;;;;;;8.60;3.08;;;19.40;99.90;;;;;;5054821;28;20047;-78
2022/03/31 01:22:51;;;;;;;5.43;3.25;;;19.40;99.90;;;;;;5055390;28;20066;-78
2022/03/31 01:25:19;;;;;;;8.75;3.72;;;19.40;99.90;;;;;;5055211;28;20013;-78
2022/03/31 01:27:48;;;;;;;7.75;3.55;;;19.40;99.90;;;;;;5055475;28;20040;-78
2022/03/31 01:30:18;;;;;;;10.30;4.18;;;19.40;99.90;;;;;;5055324;28;20021;-78
2022/03/31 01:32:46;;;;;;;9.63;4.63;;;19.70;99.90;;;;;;5036394;28;20108;-78
2022/03/31 01:35:15;;;;;;;11.18;4.78;;;19.70;99.90;;;;;;5054035;28;20025;-79
2022/03/31 01:37:46;;;;;;;11.52;5.45;;;19.60;99.90;;;;;;5035654;28;20108;-79
2022/03/31 01:40:13;;;;;;;14.65;5.68;;;19.60;99.90;;;;;;5053591;28;20524;-79
2022/03/31 01:42:45;;;;;;;10.82;4.80;;;19.70;99.90;;;;;;5035360;28;20029;-79
2022/03/31 01:45:15;;;;;;;12.43;5.40;;;19.60;99.90;;;;;;5053331;28;20465;-78
2022/03/31 01:47:44;;;;;;;15.52;7.22;;;19.60;99.90;;;;;;5053314;28;20048;-79
2022/03/31 01:50:12;;;;;;;16.52;6.03;;;19.60;99.90;;;;;;5053776;28;20448;-78
2022/03/31 01:52:40;;;;;;;15.98;6.25;;;19.60;99.90;;;;;;5052946;28;20099;-76
2022/03/31 01:55:09;;;;;;;16.98;7.13;;;19.60;99.90;;;;;;5053319;28;20021;-77
2022/03/31 01:57:37;;;;;;;18.33;6.22;;;19.60;99.90;;;;;;5053137;28;20021;-78
2022/03/31 02:00:07;;;;;;;19.58;6.13;;;19.50;99.90;;;;;;5035157;28;20485;-78
2022/03/31 02:02:34;;;;;;;22.02;6.95;;;19.50;99.90;;;;;;5052784;28;20021;-77
2022/03/31 02:05:02;;;;;;;19.67;7.10;;;19.40;99.90;;;;;;5053168;28;20378;-78
2022/03/31 02:07:29;;;;;;;32.25;8.40;;;19.30;99.90;;;;;;5053437;28;20020;-78
2022/03/31 02:09:56;;;;;;;27.15;8.35;;;19.30;99.90;;;;;;5053548;28;20389;-78
2022/03/31 02:12:24;;;;;;;35.10;9.18;;;19.30;99.90;;;;;;5053415;28;20021;-78
2022/03/31 02:14:51;;;;;;;29.02;7.88;;;19.30;99.90;;;;;;5035373;28;20032;-79
2022/03/31 02:17:19;;;;;;;27.70;7.18;;;19.30;99.90;;;;;;5052887;28;20127;-78
2022/03/31 02:19:46;;;;;;;25.02;7.40;;;19.20;99.90;;;;;;5052716;28;20027;-77
2022/03/31 02:22:13;;;;;;;22.27;6.38;;;19.20;99.90;;;;;;5052286;28;20079;-78
2022/03/31 02:24:41;;;;;;;32.58;8.45;;;19.20;99.90;;;;;;5052384;28;20033;-78
2022/03/31 02:27:08;;;;;;;20.60;6.28;;;19.10;99.90;;;;;;5052585;28;20033;-77
2022/03/31 02:29:36;;;;;;;25.15;6.97;;;19.10;99.90;;;;;;5054729;28;20029;-79
2022/03/31 02:32:04;;;;;;;18.50;5.82;;;19.10;99.90;;;;;;5036696;28;20029;-79
2022/03/31 02:34:31;;;;;;;24.55;5.78;;;19.30;99.90;;;;;;5058222;28;20021;-79
2022/03/31 02:36:58;;;;;;;21.70;5.95;;;19.60;99.90;;;;;;5040199;28;20017;-78
2022/03/31 02:39:29;;;;;;;21.30;5.50;;;19.90;99.90;;;;;;5057911;28;20056;-77
2022/03/31 02:42:03;;;;;;;19.17;5.47;;;20.00;99.90;;;;;;5039214;28;20513;-78
2022/03/31 02:44:30;;;;;;;17.15;5.75;;;20.30;99.90;;;;;;5040141;28;20033;-78
2022/03/31 02:46:58;;;;;;;19.95;4.80;;;20.60;99.90;;;;;;5058159;28;20029;-78
2022/03/31 02:49:25;;;;;;;17.13;4.97;;;20.80;99.90;;;;;;5041851;28;20029;-80
2022/03/31 02:51:52;;;;;;;22.17;5.07;;;21.20;99.90;;;;;;5058045;28;20024;-78
2022/03/31 02:57:05;;;;;;;18.88;4.90;;;20.80;99.90;;;;;;5058089;28;20032;-77
2022/03/31 02:59:33;;;;;;;17.63;4.10;;;20.20;99.90;;;;;;5058740;28;20017;-79
2022/03/31 03:02:00;;;;;;;18.98;4.45;;;19.90;99.90;;;;;;5040477;28;20028;-78
2022/03/31 03:04:28;;;;;;;19.77;4.07;;;19.90;99.90;;;;;;5058096;28;20028;-79
2022/03/31 03:06:55;;;;;;;20.95;5.63;;;19.90;99.90;;;;;;5058227;28;20077;-78
2022/03/31 03:09:23;;;;;;;15.15;4.18;;;20.00;99.90;;;;;;5040012;28;20486;-77
2022/03/31 03:11:50;;;;;;;17.80;5.28;;;20.00;99.90;;;;;;5057728;28;20025;-78
2022/03/31 03:14:18;;;;;;;24.90;5.68;;;20.00;99.90;;;;;;5040650;28;20021;-78
2022/03/31 03:16:46;;;;;;;24.40;5.25;;;20.00;99.90;;;;;;5057153;28;20040;-79
2022/03/31 03:19:13;;;;;;;27.50;5.20;;;20.00;99.90;;;;;;5037646;28;20066;-79
2022/03/31 03:21:40;;;;;;;23.67;5.60;;;20.00;99.90;;;;;;5055568;28;20120;-78
2022/03/31 03:24:10;;;;;;;26.30;4.82;;;20.10;99.90;;;;;;5055351;28;20064;-78
2022/03/31 03:26:37;;;;;;;26.38;6.45;;;20.00;99.90;;;;;;5055398;28;20021;-78
2022/03/31 03:29:04;;;;;;;27.27;6.07;;;19.80;99.90;;;;;;5055141;28;20029;-78
2022/03/31 03:31:32;;;;;;;31.35;6.45;;;19.80;99.90;;;;;;5055167;28;20017;-78
2022/03/31 03:33:59;;;;;;;27.05;6.30;;;19.70;99.90;;;;;;5038281;28;20489;-79
2022/03/31 03:36:27;;;;;;;26.80;5.30;;;19.70;99.90;;;;;;5056151;28;20029;-79
2022/03/31 03:38:54;;;;;;;27.27;5.80;;;19.70;99.90;;;;;;5037854;28;20025;-78
2022/03/31 03:41:22;;;;;;;29.10;5.82;;;19.80;99.90;;;;;;5055830;28;20025;-77
2022/03/31 03:43:49;;;;;;;21.30;5.65;;;19.70;99.90;;;;;;5037083;28;20077;-76
2022/03/31 03:46:16;;;;;;;29.65;6.72;;;19.80;99.90;;;;;;5055757;28;20029;-77
2022/03/31 03:48:44;;;;;;;24.75;5.85;;;19.90;99.90;;;;;;5037895;28;20653;-79
2022/03/31 03:51:11;;;;;;;24.75;4.78;;;19.90;99.90;;;;;;5037836;28;20052;-79
2022/03/31 03:53:39;;;;;;;19.45;4.32;;;20.10;99.90;;;;;;5056136;28;20052;-79
2022/03/31 03:56:06;;;;;;;18.42;4.70;;;20.20;99.90;;;;;;5055684;28;20024;-78
2022/03/31 03:58:34;;;;;;;21.75;4.75;;;20.40;99.90;;;;;;5038739;28;20033;-79
2022/03/31 04:01:02;;;;;;;18.60;4.30;;;20.90;99.90;;;;;;5056143;28;20071;-79
2022/03/31 04:03:29;;;;;;;20.05;4.53;;;21.20;99.90;;;;;;5037538;28;20032;-79
2022/03/31 04:05:56;;;;;;;19.58;5.20;;;21.70;99.90;;;;;;5037143;28;20055;-78
2022/03/31 04:08:24;;;;;;;24.10;5.03;;;21.80;99.90;;;;;;5055239;28;20025;-78
2022/03/31 04:10:51;;;;;;;20.70;4.60;;;21.70;99.90;;;;;;5055157;28;20105;-79
2022/03/31 04:13:18;;;;;;;18.67;4.30;;;21.50;99.90;;;;;;5037681;28;20017;-79
2022/03/31 04:15:47;;;;;;;14.75;2.67;;;21.10;99.90;;;;;;5037663;28;20067;-79
2022/03/31 04:18:14;;;;;;;16.77;3.58;;;20.30;99.90;;;;;;5039276;28;20505;-80
2022/03/31 04:20:41;;;;;;;13.73;3.10;;;19.80;99.90;;;;;;5038440;28;20116;-80
2022/03/31 04:23:08;;;;;;;13.15;3.00;;;19.40;99.90;;;;;;5038492;28;20370;-77
2022/03/31 04:25:36;;;;;;;17.00;3.72;;;19.30;99.90;;;;;;5056307;28;20033;-80
2022/03/31 04:28:04;;;;;;;22.77;4.40;;;19.30;99.90;;;;;;5038065;28;20029;-79
2022/03/31 04:30:31;;;;;;;22.63;5.28;;;19.60;99.90;;;;;;5054079;28;20025;-78
2022/03/31 04:32:58;;;;;;;23.83;4.78;;;19.70;99.90;;;;;;5054304;28;20111;-79
2022/03/31 04:35:26;;;;;;;25.55;5.53;;;19.70;99.90;;;;;;5037013;28;20025;-79
2022/03/31 04:37:53;;;;;;;28.25;5.70;;;19.70;99.90;;;;;;5037092;28;20028;-77
2022/03/31 04:40:22;;;;;;;31.80;6.10;;;19.60;99.90;;;;;;5036535;28;20044;-76
2022/03/31 04:42:49;;;;;;;29.80;6.00;;;19.80;99.90;;;;;;5036854;28;20017;-79
2022/03/31 04:45:17;;;;;;;29.95;6.32;;;20.00;99.90;;;;;;5056334;28;20013;-79
2022/03/31 04:47:44;;;;;;;22.65;4.82;;;20.10;99.90;;;;;;5055544;28;20040;-80
2022/03/31 04:50:16;;;;;;;21.35;4.40;;;20.30;99.90;;;;;;5054551;28;20029;-79
2022/03/31 04:52:44;;;;;;;17.77;3.83;;;20.70;99.90;;;;;;5037248;28;20537;-79
2022/03/31 04:55:11;;;;;;;20.83;4.05;;;20.80;99.90;;;;;;5054250;28;20072;-79
2022/03/31 04:57:39;;;;;;;23.73;4.20;;;20.70;99.90;;;;;;5054963;28;20017;-79
2022/03/31 05:00:07;;;;;;;19.00;4.30;;;;;;;;;;5055666;28;20029;-79
2022/03/31 05:02:34;;;;;;;19.58;4.05;;;;;;;;;;5054887;28;20024;-79
2022/03/31 05:05:02;;;;;;;19.63;4.35;;;20.70;99.90;;;;;;5037806;28;20616;-79
2022/03/31 05:07:29;;;;;;;25.65;4.93;;;20.70;99.90;;;;;;5055568;28;20021;-80
2022/03/31 05:09:57;;;;;;;25.83;4.50;;;20.80;99.90;;;;;;5058309;28;20029;-79
2022/03/31 05:12:24;;;;;;;24.73;4.63;;;20.70;99.90;;;;;;5039925;28;20053;-79
2022/03/31 05:14:52;;;;;;;19.10;4.25;;;20.70;99.90;;;;;;5041807;28;20029;-78
2022/03/31 05:17:19;;;;;;;19.38;4.03;;;20.60;99.90;;;;;;5042835;28;20043;-78
2022/03/31 05:19:47;;;;;;;24.02;4.65;;;21.00;99.90;;;;;;5062026;28;20079;-79
2022/03/31 05:22:14;;;;;;;22.17;4.50;;;20.80;99.90;;;;;;5060551;28;20025;-78
2022/03/31 05:24:41;;;;;;;19.70;3.80;;;20.70;99.90;;;;;;5061359;28;20024;-79
2022/03/31 05:27:09;;;;;;;19.67;4.07;;;20.60;99.90;;;;;;5058624;28;20169;-80
2022/03/31 05:29:36;;;;;;;18.85;4.53;;;20.70;99.90;;;;;;5041761;28;20033;-78
2022/03/31 05:32:04;;;;;;;15.43;3.65;;;20.70;99.90;;;;;;5057749;28;20021;-79
2022/03/31 05:34:34;;;;;;;19.38;3.47;;;20.60;99.90;;;;;;5037467;28;20021;-78
2022/03/31 05:37:03;;;;;;;17.92;3.78;;;20.30;99.90;;;;;;5054399;28;20017;-79
2022/03/31 05:39:32;;;;;;;24.20;4.27;;;20.20;99.90;;;;;;5036596;28;20044;-79
2022/03/31 05:41:59;;;;;;;17.95;3.95;;;20.00;99.90;;;;;;5036789;28;20082;-79
2022/03/31 05:44:27;;;;;;;17.90;4.07;;;20.00;99.90;;;;;;5054445;28;20036;-78
2022/03/31 05:46:54;;;;;;;20.02;3.90;;;20.00;99.90;;;;;;5036020;28;20052;-79
2022/03/31 05:49:22;;;;;;;18.65;3.92;;;20.00;99.90;;;;;;5054496;28;20029;-79
2022/03/31 05:51:49;;;;;;;20.50;3.35;;;19.90;99.90;;;;;;5038113;28;20043;-78
2022/03/31 05:54:16;;;;;;;17.13;3.58;;;19.90;99.90;;;;;;5036300;28;20017;-79
2022/03/31 05:56:44;;;;;;;18.08;3.63;;;19.90;99.90;;;;;;5054477;28;20017;-79
2022/03/31 05:59:11;;;;;;;16.38;3.90;;;19.80;99.90;;;;;;5055113;28;20033;-78
2022/03/31 06:01:39;;;;;;;20.35;3.72;;;19.10;99.90;;;;;;5053629;28;20033;-78
2022/03/31 06:04:06;;;;;;;18.40;4.40;;;18.80;99.90;;;;;;5053956;28;20432;-78
2022/03/31 06:06:34;;;;;;;14.82;3.35;;;18.40;99.90;;;;;;5055153;28;20024;-78
2022/03/31 06:09:01;;;;;;;17.38;4.05;;;18.40;99.90;;;;;;5054253;28;20409;-78
2022/03/31 06:11:28;;;;;;;22.02;4.07;;;18.40;99.90;;;;;;5036847;28;20032;-78
2022/03/31 06:13:56;;;;;;;22.40;4.18;;;18.40;99.90;;;;;;5036284;28;20067;-79
2022/03/31 06:16:23;;;;;;;26.15;4.70;;;18.40;99.90;;;;;;5054391;28;20017;-78
2022/03/31 06:18:50;;;;;;;23.85;5.80;;;18.20;99.90;;;;;;5035554;28;20047;-77
2022/03/31 06:21:18;;;;;;;26.33;5.18;;;18.00;99.90;;;;;;5053701;28;20021;-78
2022/03/31 06:23:45;;;;;;;21.85;4.82;;;17.70;99.90;;;;;;5036526;28;20028;-78
2022/03/31 06:26:13;;;;;;;18.52;3.90;;;17.70;99.90;;;;;;5036755;28;20021;-77
2022/03/31 06:28:40;;;;;;;21.27;4.15;;;17.70;99.90;;;;;;5054688;28;20021;-79
2022/03/31 06:31:07;;;;;;;20.25;4.40;;;17.70;99.90;;;;;;5054768;28;20036;-78
2022/03/31 06:33:37;;;;;;;24.50;5.70;;;17.70;99.90;;;;;;5036855;28;20405;-78
2022/03/31 06:36:04;;;;;;;23.38;5.05;;;17.90;99.90;;;;;;5036355;28;20082;-78
2022/03/31 06:38:32;;;;;;;23.75;4.97;;;17.80;99.90;;;;;;5034761;28;20067;-78
2022/03/31 06:41:10;;;;;;;23.92;4.43;;;17.80;99.90;;;;;;5052136;28;20039;-79
2022/03/31 06:43:42;;;;;;;19.50;3.70;;;17.70;99.90;;;;;;5052444;28;20028;-79
2022/03/31 06:46:11;;;;;;;20.33;3.83;;;17.40;99.90;;;;;;5052112;28;20021;-74
2022/03/31 06:48:43;;;;;;;18.38;3.85;;;17.20;99.90;;;;;;5052826;28;20428;-74
2022/03/31 06:51:11;;;;;;;20.80;4.18;;;17.10;99.90;;;;;;5052836;28;20024;-74
2022/03/31 06:53:39;;;;;;;17.83;3.30;;;17.00;99.90;;;;;;5053060;28;20085;-74
2022/03/31 06:56:08;;;;;;;24.15;4.93;;;16.90;99.90;;;;;;5035393;28;20025;-75
2022/03/31 06:58:36;;;;;;;23.58;4.43;;;17.00;99.90;;;;;;5052042;28;20025;-74
2022/03/31 07:01:04;;;;;;;21.98;4.35;;;16.90;99.90;;;;;;5034212;28;20186;-74
2022/03/31 07:03:32;;;;;;;33.92;5.60;;;16.90;99.90;;;;;;5034634;28;20033;-75
2022/03/31 07:06:00;;;;;;;30.48;5.63;;;16.90;99.90;;;;;;5052038;28;20029;-74
2022/03/31 07:08:27;;;;;;;23.98;4.95;;;16.90;99.90;;;;;;5034701;28;20436;-76
2022/03/31 07:10:55;;;;;;;19.58;4.35;;;17.00;99.90;;;;;;5035276;28;20454;-75
2022/03/31 07:13:22;;;;;;;26.00;5.20;;;17.20;99.90;;;;;;5055259;28;20441;-75
2022/03/31 07:15:49;;;;;;;23.60;4.55;;;17.20;99.90;;;;;;5054487;28;20100;-75
2022/03/31 07:18:17;;;;;;;23.40;5.55;;;17.30;99.90;;;;;;5036950;28;20111;-75
2022/03/31 07:20:44;;;;;;;29.20;4.15;;;17.30;99.90;;;;;;5056182;28;20072;-75
2022/03/31 07:23:12;;;;;;;20.55;4.03;;;17.50;99.90;;;;;;5040201;28;20485;-75
2022/03/31 07:25:40;;;;;;;24.42;3.92;;;17.50;99.90;;;;;;5041427;28;20021;-75
2022/03/31 07:28:07;;;;;;;15.02;3.47;;;17.60;99.90;;;;;;5058517;28;20029;-75
2022/03/31 07:30:35;;;;;;;18.33;3.58;;;17.60;99.90;;;;;;5056897;28;20025;-74
2022/03/31 07:33:04;;;;;;;22.55;4.00;;;17.70;99.90;;;;;;5057646;28;20017;-74
2022/03/31 07:35:34;;;;;;;16.58;3.95;;;17.70;99.90;;;;;;5057659;28;20422;-74
2022/03/31 07:38:07;;;;;;;21.55;3.75;;;17.70;99.90;;;;;;5056636;28;20480;-75
2022/03/31 07:40:37;;;;;;;21.35;3.58;;;17.90;99.90;;;;;;5038918;28;20089;-75
2022/03/31 07:43:06;;;;;;;17.33;3.50;;;17.90;99.90;;;;;;5058510;28;20017;-75
2022/03/31 07:45:34;;;;;;;19.73;3.75;;;17.90;99.90;;;;;;5057525;28;20017;-74
2022/03/31 07:48:04;;;;;;;23.75;4.35;;;17.90;99.90;;;;;;5056114;28;20017;-76
2022/03/31 07:50:33;;;;;;;18.25;4.22;;;18.00;99.90;;;;;;5038444;28;20385;-75
2022/03/31 07:53:01;;;;;;;17.10;3.83;;;18.10;99.90;;;;;;5056855;28;20025;-75
2022/03/31 07:55:28;;;;;;;19.00;4.18;;;18.10;99.90;;;;;;5056682;28;20086;-76
2022/03/31 07:57:55;;;;;;;19.98;4.38;;;18.10;99.90;;;;;;5039764;28;20438;-76
2022/03/31 08:00:23;;;;;;;14.57;3.25;;;18.10;99.90;;;;;;5058417;28;20021;-75
2022/03/31 08:02:52;;;;;;;16.77;3.17;;;18.10;99.90;;;;;;5057661;28;20112;-75
2022/03/31 08:05:25;;;;;;;15.10;3.40;;;18.10;99.90;;;;;;5038421;28;20021;-75
2022/03/31 08:07:52;;;;;;;14.73;3.55;;;18.10;99.90;;;;;;5038924;28;20075;-77
2022/03/31 08:10:21;;;;;;;13.55;2.97;;;18.10;99.90;;;;;;5056459;28;20028;-76
2022/03/31 08:12:50;;;;;;;18.50;3.00;;;18.20;99.90;;;;;;5055601;28;20385;-76
2022/03/31 08:15:18;;;;;;;17.20;3.35;;;;;;;;;;5037979;28;20108;-77
2022/03/31 08:17:49;;;;;;;14.23;2.80;;;;;;;;;;5037975;28;20048;-76
2022/03/31 08:20:16;;;;;;;16.67;3.58;;;;;;;;;;5038459;28;20025;-77
2022/03/31 08:22:44;;;;;;;18.73;3.58;;;;;;;;;;5038276;28;20029;-76
2022/03/31 08:25:11;;;;;;;16.60;4.18;;;;;;;;;;5037293;28;20028;-75
2022/03/31 08:27:39;;;;;;;14.35;3.05;;;;;;;;;;5036434;28;20082;-75
2022/03/31 08:30:10;;;;;;;14.85;2.78;;;;;;;;;;5036383;28;20087;-75
2022/03/31 08:32:39;;;;;;;12.38;2.78;;;;;;;;;;5054770;28;20032;-76
2022/03/31 08:35:08;;;;;;;17.85;3.20;;;;;;;;;;5037930;28;20032;-76
2022/03/31 08:37:35;;;;;;;15.88;3.05;;;;;;;;;;5056208;28;20021;-76
2022/03/31 08:40:03;;;;;;;14.63;3.25;;;;;;;;;;5037122;28;20124;-76
2022/03/31 08:42:30;;;;;;;13.30;2.58;;;;;;;;;;5037388;28;20029;-77
2022/03/31 08:44:58;;;;;;;14.00;3.33;;;;;;;;;;5039380;28;20134;-76
2022/03/31 08:47:26;;;;;;;14.45;2.78;;;;;;;;;;5056855;28;20434;-76
2022/03/31 08:49:56;;;;;;;13.55;2.88;;;;;;;;;;5036197;28;20033;-77
2022/03/31 08:52:24;;;;;;;19.05;3.08;;;;;;;;;;5036131;28;20025;-75
2022/03/31 08:54:51;;;;;;;13.30;2.85;;;;;;;;;;5055972;28;20017;-75
2022/03/31 08:57:20;;;;;;;12.38;2.63;;;;;;;;;;5056066;28;20032;-76
2022/03/31 08:59:47;;;;;;;15.25;2.78;;;;;;;;;;5038490;28;20021;-76
2022/03/31 09:02:24;;;;;;;14.27;2.75;;;;;;;;;;5038368;28;20021;-76
2022/03/31 09:05:02;;;;;;;14.98;2.58;;;;;;;;;;5055608;28;20033;-76
2022/03/31 09:07:29;;;;;;;10.98;3.00;;;;;;;;;;5038281;28;20029;-77
2022/03/31 09:09:56;;;;;;;10.77;2.15;;;;;;;;;;5037164;28;20021;-77
2022/03/31 09:12:26;;;;;;;13.35;2.80;;;;;;;;;;5057157;28;20025;-76
2022/03/31 09:14:54;;;;;;;10.20;1.92;;;18.00;99.90;;;;;;5056572;28;20504;-78
2022/03/31 09:17:21;;;;;;;13.68;2.70;;;18.10;99.90;;;;;;5056322;28;20063;-77
2022/03/31 09:19:58;;;;;;;11.77;2.45;;;;;;;;;;5055830;28;20119;-75
2022/03/31 09:22:25;;;;;;;16.20;2.88;;;;;;;;;;5038625;28;20029;-77
2022/03/31 09:25:01;;;;;;;13.60;3.22;;;;;;;;;;5039340;28;20051;-77
2022/03/31 09:27:28;;;;;;;11.93;2.58;;;18.30;99.90;;;;;;5056519;28;20481;-76
2022/03/31 09:30:05;;;;;;;14.50;2.65;;;18.30;99.90;;;;;;5057082;28;20025;-77
2022/03/31 09:32:33;;;;;;;18.35;4.05;;;;;;;;;;5056511;28;20428;-76
2022/03/31 09:35:07;;;;;;;15.13;3.63;;;;;;;;;;5037961;28;20025;-79
2022/03/31 09:37:34;;;;;;;14.50;2.97;;;;;;;;;;5037403;28;20021;-76
2022/03/31 09:40:01;;;;;;;17.55;3.50;;;;;;;;;;5056077;28;20032;-75
2022/03/31 09:42:35;;;;;;;16.02;3.35;;;;;;;;;;5055682;28;20489;-76
2022/03/31 09:45:03;;;;;;;18.00;3.50;;;;;;;;;;5055472;28;20029;-75
2022/03/31 09:47:31;;;;;;;14.93;3.25;;;;;;;;;;5037135;28;20254;-76
2022/03/31 09:49:58;;;;;;;15.32;3.50;;;;;;;;;;5055323;28;20032;-76
2022/03/31 09:52:26;;;;;;;15.00;3.65;;;;;;;;;;5037719;28;20029;-77
2022/03/31 09:54:53;;;;;;;14.82;2.63;;;;;;;;;;5039697;28;20025;-77
2022/03/31 09:57:23;;;;;;;14.10;2.83;;;;;;;;;;5057589;28;20102;-77
2022/03/31 09:59:52;;;;;;;11.15;2.15;;;;;;;;;;5055999;28;20036;-76
2022/03/31 10:02:23;;;;;;;15.30;2.97;;;;;;;;;;5057189;28;20017;-78
2022/03/31 10:04:49;;;;;;;;;;;;;;;;;;5056366;28;20552;-76
2022/03/31 10:07:16;;;;;;;16.40;3.42;;;;;;;;;;5054629;28;20376;-76
2022/03/31 10:09:44;;;;;;;14.73;2.90;;;;;;;;;;5036265;28;20029;-76
2022/03/31 10:12:11;;;;;;;16.25;2.75;;;;;;;;;;5053661;28;20028;-76
2022/03/31 10:14:52;;;;;;;11.38;2.53;;;;;;;;;;5055986;28;20385;-77
2022/03/31 10:17:25;;;;;;;15.45;2.33;;;;;;;;;;5034267;28;20093;-77
2022/03/31 10:19:53;;;;;;;12.07;2.72;;;;;;;;;;5035835;28;20025;-77
2022/03/31 10:25:09;;;;;;;12.45;2.47;;;;;;;;;;5034749;28;20318;-78
2022/03/31 10:27:38;;;;;;;21.88;2.95;;;;;;;;;;5032404;28;20469;-76
2022/03/31 10:30:12;;;;;;;14.25;2.70;;;;;;;;;;5033124;28;20029;-76
2022/03/31 10:32:50;;;;;;;17.65;2.78;;;;;;;;;;5033137;28;20025;-76
2022/03/31 10:35:37;;;;;;;17.90;3.33;;;;;;;;;;5033215;28;20021;-75
2022/03/31 10:38:15;;;;;;;9.82;2.00;;;;;;;;;;5032604;28;20406;-76
2022/03/31 10:40:44;;;;;;;13.52;1.85;;;;;;;;;;5032432;28;20079;-75
2022/03/31 10:43:21;;;;;;;12.85;2.83;;;;;;;;;;5031075;28;20486;-76
2022/03/31 10:45:48;;;;;;;13.02;2.75;;;;;;;;;;5032779;28;20021;-77
2022/03/31 10:48:20;;;;;;;15.13;3.30;;;;;;;;;;5034864;28;20120;-77
2022/03/31 10:50:48;;;;;;;19.60;3.53;;;;;;;;;;5035655;28;20029;-77
2022/03/31 10:53:15;;;;;;;16.33;3.20;;;;;;;;;;5036616;28;20092;-77
2022/03/31 10:55:44;;;;;;;14.73;3.80;;;;;;;;;;5039044;28;20014;-77
2022/03/31 10:58:21;;;;;;;17.67;3.72;;;;;;;;;;5038911;28;20018;-77
2022/03/31 11:00:50;;;;;;;16.00;2.80;;;;;;;;;;5037548;28;20024;-78
2022/03/31 11:03:18;;;;;;;14.35;3.17;;;;;;;;;;5038986;28;20017;-77
2022/03/31 11:05:45;;;;;;;15.85;2.97;;;;;;;;;;5037266;28;20075;-77
2022/03/31 11:08:17;;;;;;;13.82;3.45;;;;;;;;;;5038536;28;20032;-77
2022/03/31 11:10:54;;;;;;;11.75;2.70;;;;;;;;;;5038786;28;20037;-76
2022/03/31 11:13:41;;;;;;;10.15;2.40;;;;;;;;;;5036867;28;20029;-76
2022/03/31 11:16:08;;;;;;;15.43;2.70;;;;;;;;;;5037242;28;20112;-77
2022/03/31 11:18:35;;;;;;;11.75;2.38;;;;;;;;;;5058651;28;20029;-77
2022/03/31 11:21:03;;;;;;;11.80;2.42;;;;;;;;;;5058212;28;20446;-77
2022/03/31 11:23:31;;;;;;;13.25;2.92;;;;;;;;;;5040674;28;20033;-76
2022/03/31 11:25:58;;;;;;;12.07;2.20;;;;;;;;;;5039781;28;20055;-76
2022/03/31 11:28:30;;;;;;;13.85;3.33;;;16.80;99.90;;;;;;5057524;28;20036;-76
2022/03/31 11:30:59;;;;;;;13.77;3.13;;;16.80;99.90;;;;;;5040189;28;20017;-76
2022/03/31 11:33:39;;;;;;;13.13;2.53;;;16.80;99.90;;;;;;5040070;28;20025;-77
2022/03/31 11:36:07;;;;;;;15.43;2.85;;;16.70;99.90;;;;;;5039869;28;20025;-77
2022/03/31 11:38:34;;;;;;;13.75;2.92;;;16.80;99.90;;;;;;5057498;28;20041;-77
2022/03/31 11:41:02;;;;;;;12.00;2.63;;;16.80;99.90;;;;;;5058263;28;20025;-76
2022/03/31 11:43:32;;;;;;;18.08;3.67;;;16.80;99.90;;;;;;5039536;28;20029;-76
2022/03/31 11:46:00;;;;;;;12.27;2.42;;;16.70;99.90;;;;;;5038527;28;20119;-76
2022/03/31 11:48:35;;;;;;;16.92;4.13;;;16.80;99.90;;;;;;5057282;28;20029;-76
2022/03/31 11:51:05;;;;;;;17.60;4.32;;;16.80;99.90;;;;;;5057382;28;20017;-77
2022/03/31 11:53:33;;;;;;;17.45;3.28;;;16.80;99.90;;;;;;5057376;28;20100;-76
2022/03/31 11:56:06;;;;;;;16.10;3.03;;;16.80;99.90;;;;;;5039275;28;20103;-76
2022/03/31 11:58:45;;;;;;;13.95;3.03;;;16.70;99.90;;;;;;5038289;28;20029;-75
2022/03/31 12:01:13;;;;;;;12.60;2.47;;;16.70;99.90;;;;;;5038179;28;20061;-76
2022/03/31 12:03:41;;;;;;;11.43;2.30;;;16.80;99.90;;;;;;5056706;28;20394;-76
2022/03/31 12:06:10;;;;;;;12.15;2.85;;;16.80;99.90;;;;;;5056072;28;20029;-76
2022/03/31 12:08:39;;;;;;;14.32;3.08;;;16.70;99.90;;;;;;5056630;28;20157;-75
2022/03/31 12:11:07;;;;;;;15.68;3.75;;;16.50;99.90;;;;;;5037630;28;20482;-75
2022/03/31 12:13:51;;;;;;;8.95;2.75;;;16.30;99.90;;;;;;5056719;28;20025;-75
2022/03/31 12:16:21;;;;;;;10.77;2.22;;;16.20;99.90;;;;;;5039411;28;20021;-75
2022/03/31 12:18:59;;;;;;;13.20;2.63;;;16.20;99.90;;;;;;5056542;28;20029;-75
2022/03/31 12:21:28;;;;;;;13.68;2.75;;;16.10;99.90;;;;;;5056805;28;20033;-75
2022/03/31 12:24:03;;;;;;;14.52;3.08;;;16.10;99.90;;;;;;5054910;28;20028;-75
2022/03/31 12:26:30;;;;;;;18.33;3.20;;;15.90;99.90;;;;;;5055697;28;20025;-74
2022/03/31 12:29:01;;;;;;;13.45;2.25;;;15.70;99.90;;;;;;5055544;28;20037;-76
2022/03/31 12:31:31;;;;;;;10.85;2.63;;;15.60;99.90;;;;;;5039816;28;20025;-77
2022/03/31 12:33:59;;;;;;;13.38;2.80;;;15.40;99.90;;;;;;5056006;28;20025;-77
2022/03/31 12:36:32;;;;;;;17.05;5.60;;;15.50;99.90;;;;;;5055278;28;20017;-76
2022/03/31 12:39:03;;;;;;;10.77;1.90;;;15.30;99.90;;;;;;5055714;28;20059;-76
2022/03/31 12:41:36;;;;;;;12.27;2.78;;;15.40;99.90;;;;;;5037693;28;20075;-76
2022/03/31 12:44:16;;;;;;;11.07;1.80;;;15.50;99.90;;;;;;5055486;28;20025;-75
2022/03/31 12:46:58;;;;;;;13.13;2.38;;;15.60;99.90;;;;;;5038637;28;20432;-78
2022/03/31 12:49:40;;;;;;;11.35;2.20;;;15.60;99.90;;;;;;5057325;28;20112;-77
2022/03/31 12:52:22;;;;;;;13.35;2.33;;;15.70;99.90;;;;;;5039249;28;20048;-78
2022/03/31 12:54:52;;;;;;;12.52;1.92;;;15.70;99.90;;;;;;5037807;28;20029;-77
2022/03/31 12:57:25;;;;;;;10.65;2.63;;;15.60;99.90;;;;;;5055935;28;20021;-76
2022/03/31 13:00:12;;;;;;;10.80;2.17;;;15.60;99.90;;;;;;5038888;28;20079;-76
2022/03/31 13:02:40;;;;;;;11.20;2.35;;;15.60;99.90;;;;;;5055141;28;20032;-76
2022/03/31 13:05:08;;;;;;;11.65;2.13;;;15.60;99.90;;;;;;5054868;28;20117;-77
2022/03/31 13:07:36;;;;;;;11.30;2.22;;;15.70;99.90;;;;;;5036460;28;20489;-76
2022/03/31 13:10:05;;;;;;;16.65;3.00;;;15.70;99.90;;;;;;5053760;28;20436;-75
2022/03/31 13:12:33;;;;;;;15.40;3.00;;;15.80;99.90;;;;;;5053580;28;20021;-76
2022/03/31 13:15:00;;;;;;;13.18;2.83;;;15.80;99.90;;;;;;5053623;28;20025;-75